createdAt,value
2018-07-26T00:00:08.574Z,95.06
2018-07-26T00:01:08.556Z,95.73
2018-07-26T00:02:08.548Z,96.22
2018-07-26T00:03:08.537Z,96.56
2018-07-26T00:04:08.527Z,96.84
2018-07-26T00:05:08.846Z,97.04
2018-07-26T00:06:08.509Z,96.75
2018-07-26T00:07:08.499Z,96.94
2018-07-26T00:08:08.492Z,97.23
2018-07-26T00:09:08.482Z,97.14
2018-07-26T00:10:08.473Z,97.14
2018-07-26T00:11:08.462Z,97.72
2018-07-26T00:12:08.754Z,97.23
2018-07-26T00:13:08.447Z,96.17
2018-07-26T00:14:08.436Z,96.36
2018-07-26T00:15:08.427Z,96.17
2018-07-26T00:16:08.466Z,96.51
2018-07-26T00:17:08.411Z,96.26
2018-07-26T00:18:08.698Z,96.36
2018-07-26T00:19:08.391Z,96.46
2018-07-26T00:20:08.383Z,97.04
2018-07-26T00:21:08.371Z,96.75
2018-07-26T00:22:08.367Z,96.07
2018-07-26T00:23:08.355Z,96.07
2018-07-26T00:24:08.643Z,96.26
2018-07-26T00:25:08.336Z,96.46
2018-07-26T00:26:08.324Z,96.94
2018-07-26T00:27:08.315Z,96.75
2018-07-26T00:28:08.306Z,96.80
2018-07-26T00:29:08.296Z,96.89
2018-07-26T00:30:08.589Z,97.47
2018-07-26T00:31:08.277Z,98.05
2018-07-26T00:32:08.266Z,97.77
2018-07-26T00:33:08.263Z,99.11
2018-07-26T00:34:08.249Z,98.97
2018-07-26T00:35:08.238Z,99.21
2018-07-26T00:36:08.530Z,99.31
2018-07-26T00:37:08.220Z,98.63
2018-07-26T00:38:08.212Z,98.35
2018-07-26T00:39:08.201Z,98.05
2018-07-26T00:40:08.197Z,98.05
2018-07-26T00:41:08.182Z,98.25
2018-07-26T00:42:08.424Z,97.38
2018-07-26T00:43:08.162Z,97.47
2018-07-26T00:44:08.154Z,98.05
2018-07-26T00:45:08.145Z,98.05
2018-07-26T00:46:08.137Z,98.44
2018-07-26T00:47:08.124Z,98.25
2018-07-26T00:48:08.415Z,98.93
2018-07-26T00:49:08.115Z,98.44
2018-07-26T00:50:08.098Z,98.35
2018-07-26T00:51:08.085Z,98.35
2018-07-26T00:52:08.077Z,98.35
2018-07-26T00:53:08.067Z,98.35
2018-07-26T00:54:08.359Z,98.83
2018-07-26T00:55:08.047Z,98.93
2018-07-26T00:56:08.040Z,99.02
2018-07-26T00:57:08.028Z,99.50
2018-07-26T00:58:08.026Z,99.99
2018-07-26T00:59:08.008Z,99.69
2018-07-26T01:00:07.998Z,99.99
2018-07-26T01:01:08.289Z,99.84
2018-07-26T01:02:07.979Z,99.99
2018-07-26T01:03:07.970Z,99.94
2018-07-26T01:04:07.961Z,99.99
2018-07-26T01:05:07.953Z,99.99
2018-07-26T01:06:07.942Z,99.99
2018-07-26T01:07:07.931Z,99.99
2018-07-26T01:08:08.222Z,99.99
2018-07-26T01:09:07.911Z,99.99
2018-07-26T01:10:07.902Z,99.99
2018-07-26T01:11:07.890Z,99.99
2018-07-26T01:12:07.881Z,99.99
2018-07-26T01:13:07.873Z,99.99
2018-07-26T01:14:07.862Z,99.99
2018-07-26T01:15:08.153Z,99.99
2018-07-26T01:16:07.845Z,99.99
2018-07-26T01:17:07.832Z,99.99
2018-07-26T01:18:07.823Z,99.99
2018-07-26T01:19:07.813Z,99.99
2018-07-26T01:20:07.804Z,99.99
2018-07-26T01:21:07.795Z,99.99
2018-07-26T01:22:08.085Z,99.99
2018-07-26T01:23:07.774Z,99.99
2018-07-26T01:24:07.763Z,99.99
2018-07-26T01:25:07.759Z,99.99
2018-07-26T01:26:07.755Z,99.99
2018-07-26T01:27:07.736Z,99.99
2018-07-26T01:28:07.725Z,99.99
2018-07-26T01:29:08.016Z,99.99
2018-07-26T01:30:07.730Z,99.99
2018-07-26T01:31:07.693Z,99.99
2018-07-26T01:32:07.684Z,99.99
2018-07-26T01:33:07.673Z,99.99
2018-07-26T01:34:07.665Z,99.99
2018-07-26T01:35:07.654Z,99.99
2018-07-26T01:36:07.945Z,99.99
2018-07-26T01:37:07.633Z,99.99
2018-07-26T01:38:07.625Z,99.99
2018-07-26T01:39:07.614Z,99.99
2018-07-26T01:40:07.605Z,99.99
2018-07-26T01:41:07.594Z,99.99
2018-07-26T01:42:07.584Z,99.99
2018-07-26T01:43:07.873Z,99.99
2018-07-26T01:44:07.564Z,99.99
2018-07-26T01:45:07.555Z,99.99
2018-07-26T01:46:07.544Z,99.99
2018-07-26T01:47:07.554Z,99.99
2018-07-26T01:48:07.523Z,99.99
2018-07-26T01:49:07.815Z,99.99
2018-07-26T01:50:07.503Z,99.99
2018-07-26T01:51:07.493Z,99.99
2018-07-26T01:52:07.483Z,99.99
2018-07-26T01:53:07.474Z,99.99
2018-07-26T01:54:07.462Z,99.99
2018-07-26T01:55:07.752Z,99.99
2018-07-26T01:56:07.443Z,99.99
2018-07-26T01:57:07.431Z,99.99
2018-07-26T01:58:07.438Z,99.99
2018-07-26T01:59:07.417Z,99.99
2018-07-26T02:00:07.401Z,99.99
2018-07-26T02:01:07.645Z,99.99
2018-07-26T02:02:07.387Z,99.99
2018-07-26T02:03:07.370Z,99.99
2018-07-26T02:04:07.360Z,99.99
2018-07-26T02:05:07.351Z,99.99
2018-07-26T02:06:07.343Z,99.99
2018-07-26T02:07:07.631Z,99.99
2018-07-26T02:08:07.320Z,99.99
2018-07-26T02:09:07.309Z,99.99
2018-07-26T02:10:07.301Z,99.99
2018-07-26T02:11:07.287Z,99.99
2018-07-26T02:12:07.279Z,99.99
2018-07-26T02:13:07.520Z,99.99
2018-07-26T02:14:07.256Z,99.99
2018-07-26T02:15:07.247Z,99.99
2018-07-26T02:16:07.235Z,99.99
2018-07-26T02:17:07.226Z,99.99
2018-07-26T02:18:07.215Z,99.99
2018-07-26T02:19:07.506Z,99.99
2018-07-26T02:20:07.193Z,99.99
2018-07-26T02:21:07.183Z,99.99
2018-07-26T02:22:07.172Z,99.99
2018-07-26T02:26:36.690Z,99.99
2018-07-26T02:28:09.938Z,99.99
2018-07-26T02:28:36.666Z,99.99
2018-07-26T02:29:36.655Z,99.99
2018-07-26T02:30:36.944Z,99.99
2018-07-26T02:31:36.635Z,99.99
2018-07-26T02:32:36.623Z,99.99
2018-07-26T02:33:36.613Z,99.99
2018-07-26T02:34:36.600Z,99.99
2018-07-26T02:35:36.593Z,99.99
2018-07-26T02:36:36.584Z,99.99
2018-07-26T02:37:36.915Z,99.99
2018-07-26T02:38:36.558Z,99.99
2018-07-26T02:39:36.551Z,99.99
2018-07-26T02:40:36.542Z,99.99
2018-07-26T02:41:36.527Z,99.99
2018-07-26T02:42:36.516Z,99.99
2018-07-26T02:43:36.507Z,99.99
2018-07-26T02:44:36.795Z,99.99
2018-07-26T02:45:36.488Z,99.99
2018-07-26T02:46:36.510Z,99.99
2018-07-26T02:47:36.463Z,99.99
2018-07-26T02:48:36.456Z,99.99
2018-07-26T02:49:36.443Z,99.99
2018-07-26T02:50:36.432Z,99.99
2018-07-26T02:51:36.721Z,99.99
2018-07-26T02:52:36.408Z,99.99
2018-07-26T02:53:36.399Z,99.99
2018-07-26T02:54:36.388Z,99.99
2018-07-26T02:55:36.379Z,99.99
2018-07-26T02:56:36.365Z,99.99
2018-07-26T02:57:36.355Z,99.99
2018-07-26T02:58:36.644Z,99.99
2018-07-26T02:59:36.333Z,99.99
2018-07-26T03:00:36.322Z,99.99
2018-07-26T03:02:36.299Z,99.99
2018-07-26T03:03:36.287Z,99.99
2018-07-26T03:04:36.280Z,99.99
2018-07-26T03:05:36.569Z,99.99
2018-07-26T03:06:36.255Z,99.99
2018-07-26T03:07:36.245Z,99.99
2018-07-26T03:08:36.234Z,99.99
2018-07-26T03:09:36.225Z,99.99
2018-07-26T03:10:36.213Z,99.99
2018-07-26T03:11:36.200Z,99.99
2018-07-26T03:12:36.491Z,99.99
2018-07-26T03:13:36.200Z,99.99
2018-07-26T03:14:36.171Z,99.99
2018-07-26T03:15:36.159Z,99.99
2018-07-26T03:16:36.147Z,99.99
2018-07-26T03:17:36.136Z,99.99
2018-07-26T03:18:36.425Z,99.99
2018-07-26T03:19:36.114Z,99.99
2018-07-26T03:20:36.105Z,99.99
2018-07-26T03:21:36.092Z,99.99
2018-07-26T03:22:36.080Z,99.99
2018-07-26T03:24:12.663Z,99.99
2018-07-26T03:24:36.059Z,99.99
2018-07-26T03:25:36.047Z,99.99
2018-07-26T03:26:36.035Z,99.99
2018-07-26T03:27:36.328Z,99.99
2018-07-26T03:28:36.015Z,99.99
2018-07-26T03:29:36.004Z,99.99
2018-07-26T03:30:36.293Z,99.99
2018-07-26T03:31:35.984Z,99.99
2018-07-26T03:32:35.969Z,99.99
2018-07-26T03:33:36.261Z,99.99
2018-07-26T03:34:35.947Z,99.99
2018-07-26T03:35:35.938Z,99.99
2018-07-26T03:36:36.175Z,99.99
2018-07-26T03:37:35.914Z,99.99
2018-07-26T03:38:35.902Z,99.99
2018-07-26T03:39:35.894Z,99.99
2018-07-26T03:40:35.880Z,99.99
2018-07-26T03:41:35.877Z,99.99
2018-07-26T03:42:36.158Z,99.99
2018-07-26T03:43:35.909Z,99.99
2018-07-26T03:44:35.838Z,99.99
2018-07-26T03:45:35.827Z,99.99
2018-07-26T03:46:35.814Z,99.99
2018-07-26T03:47:35.802Z,99.99
2018-07-26T03:48:36.092Z,99.99
2018-07-26T03:49:35.782Z,99.99
2018-07-26T03:50:35.774Z,99.99
2018-07-26T03:51:35.759Z,99.99
2018-07-26T03:52:35.755Z,99.99
2018-07-26T03:53:35.735Z,99.99
2018-07-26T03:54:36.026Z,99.99
2018-07-26T03:55:35.711Z,99.99
2018-07-26T03:56:35.703Z,99.99
2018-07-26T03:57:35.690Z,99.99
2018-07-26T03:58:48.416Z,99.99
2018-07-26T03:59:35.670Z,99.99
2018-07-26T04:00:35.657Z,99.99
2018-07-26T04:01:35.900Z,99.99
2018-07-26T04:02:35.636Z,99.99
2018-07-26T04:03:35.624Z,99.99
2018-07-26T04:04:35.611Z,99.99
2018-07-26T04:05:35.652Z,99.99
2018-07-26T04:06:35.595Z,99.99
2018-07-26T04:07:35.578Z,99.99
2018-07-26T04:08:35.819Z,99.99
2018-07-26T04:09:35.556Z,99.99
2018-07-26T04:10:35.546Z,99.99
2018-07-26T04:11:35.535Z,99.99
2018-07-26T04:12:35.520Z,99.99
2018-07-26T04:13:35.516Z,99.99
2018-07-26T04:14:35.497Z,99.99
2018-07-26T04:15:35.787Z,99.99
2018-07-26T04:16:35.474Z,99.99
2018-07-26T04:17:35.476Z,99.99
2018-07-26T04:18:35.451Z,99.99
2018-07-26T04:19:35.440Z,99.99
2018-07-26T04:20:35.433Z,99.99
2018-07-26T04:21:35.424Z,99.99
2018-07-26T04:22:35.708Z,99.99
2018-07-26T04:23:35.394Z,99.99
2018-07-26T04:24:35.382Z,99.99
2018-07-26T04:25:35.371Z,99.99
2018-07-26T04:26:35.360Z,99.99
2018-07-26T04:27:35.365Z,99.99
2018-07-26T04:28:35.340Z,99.99
2018-07-26T04:29:35.629Z,99.99
2018-07-26T04:30:35.313Z,99.99
2018-07-26T04:31:35.304Z,99.99
2018-07-26T04:32:35.292Z,99.99
2018-07-26T04:33:35.281Z,99.99
2018-07-26T04:34:35.272Z,99.99
2018-07-26T04:35:35.261Z,99.99
2018-07-26T04:36:35.548Z,99.99
2018-07-26T04:37:35.246Z,99.99
2018-07-26T04:38:35.226Z,99.99
2018-07-26T04:39:35.213Z,99.99
2018-07-26T04:40:35.204Z,99.99
2018-07-26T04:41:35.242Z,99.99
2018-07-26T04:42:35.183Z,99.99
2018-07-26T04:43:35.471Z,99.99
2018-07-26T04:44:35.181Z,99.99
2018-07-26T04:45:35.147Z,99.99
2018-07-26T04:46:35.150Z,99.99
2018-07-26T04:47:35.125Z,99.99
2018-07-26T04:48:35.114Z,99.99
2018-07-26T04:49:35.104Z,99.99
2018-07-26T04:50:35.390Z,99.99
2018-07-26T04:51:35.091Z,99.99
2018-07-26T04:52:35.071Z,99.99
2018-07-26T04:53:35.058Z,99.99
2018-07-26T04:54:35.086Z,99.99
2018-07-26T04:55:35.041Z,99.99
2018-07-26T04:56:35.367Z,99.99
2018-07-26T04:57:35.012Z,99.99
2018-07-26T04:58:35.002Z,99.99
2018-07-26T04:59:34.994Z,99.99
2018-07-26T05:00:34.998Z,99.99
2018-07-26T05:01:34.970Z,99.99
2018-07-26T05:02:35.258Z,99.99
2018-07-26T05:03:34.946Z,99.99
2018-07-26T05:04:34.937Z,99.99
2018-07-26T05:05:34.925Z,99.99
2018-07-26T05:06:34.912Z,99.99
2018-07-26T05:07:34.902Z,99.99
2018-07-26T05:08:35.142Z,99.99
2018-07-26T05:09:34.883Z,99.99
2018-07-26T05:10:34.870Z,99.99
2018-07-26T05:11:34.858Z,99.99
2018-07-26T05:12:34.894Z,99.99
2018-07-26T05:13:34.867Z,99.99
2018-07-26T05:14:35.125Z,99.99
2018-07-26T05:15:34.814Z,99.99
2018-07-26T05:16:34.804Z,99.99
2018-07-26T05:17:34.794Z,99.99
2018-07-26T05:18:34.845Z,99.99
2018-07-26T05:19:34.772Z,99.99
2018-07-26T05:20:35.063Z,99.99
2018-07-26T05:21:34.755Z,99.99
2018-07-26T05:22:34.738Z,99.99
2018-07-26T05:23:34.729Z,99.99
2018-07-26T05:24:34.718Z,99.99
2018-07-26T05:25:34.709Z,99.99
2018-07-26T05:26:34.945Z,99.99
2018-07-26T05:27:34.688Z,99.99
2018-07-26T05:28:34.676Z,99.99
2018-07-26T05:29:34.662Z,99.99
2018-07-26T05:30:34.653Z,99.99
2018-07-26T05:31:34.641Z,99.99
2018-07-26T05:32:34.931Z,99.99
2018-07-26T05:33:34.750Z,99.99
2018-07-26T05:34:34.610Z,99.99
2018-07-26T05:35:34.600Z,99.99
2018-07-26T05:36:34.588Z,99.99
2018-07-26T05:37:34.611Z,99.99
2018-07-26T05:38:34.568Z,99.99
2018-07-26T05:39:34.930Z,99.99
2018-07-26T05:40:34.560Z,99.99
2018-07-26T05:41:34.541Z,99.99
2018-07-26T05:42:34.533Z,99.99
2018-07-26T05:43:34.515Z,99.99
2018-07-26T05:44:34.506Z,99.99
2018-07-26T05:45:34.494Z,99.99
2018-07-26T05:46:34.496Z,99.99
2018-07-26T05:47:34.473Z,99.99
2018-07-26T05:48:34.461Z,99.99
2018-07-26T05:49:34.454Z,99.99
2018-07-26T05:50:34.443Z,99.99
2018-07-26T05:51:34.444Z,99.99
2018-07-26T05:52:34.721Z,99.99
2018-07-26T05:53:34.451Z,99.99
2018-07-26T05:54:34.405Z,99.99
2018-07-26T05:55:34.409Z,99.99
2018-07-26T05:56:34.380Z,99.99
2018-07-26T05:57:34.371Z,99.99
2018-07-26T05:58:34.360Z,99.99
2018-07-26T05:59:34.651Z,99.99
2018-07-26T06:00:34.343Z,99.99
2018-07-26T06:01:34.334Z,99.99
2018-07-26T06:02:34.335Z,99.99
2018-07-26T06:03:34.317Z,99.99
2018-07-26T06:04:34.299Z,99.99
2018-07-26T06:05:34.591Z,99.99
2018-07-26T06:06:34.285Z,99.99
2018-07-26T06:07:34.269Z,99.99
2018-07-26T06:08:34.259Z,99.99
2018-07-26T06:09:34.365Z,99.99
2018-07-26T06:10:34.255Z,99.99
2018-07-26T06:11:34.540Z,99.99
2018-07-26T06:12:34.223Z,99.99
2018-07-26T06:13:34.228Z,99.99
2018-07-26T06:14:34.202Z,99.99
2018-07-26T06:15:34.190Z,99.99
2018-07-26T06:16:34.200Z,99.99
2018-07-26T06:17:34.471Z,99.99
2018-07-26T06:18:34.215Z,99.99
2018-07-26T06:19:34.147Z,99.99
2018-07-26T06:20:34.206Z,99.84
2018-07-26T06:21:34.148Z,98.49
2018-07-26T06:22:34.119Z,98.58
2018-07-26T06:23:34.424Z,98.68
2018-07-26T06:24:34.149Z,98.39
2018-07-26T06:25:34.093Z,99.26
2018-07-26T06:26:34.117Z,99.31
2018-07-26T06:27:34.085Z,99.65
2018-07-26T06:28:34.066Z,99.11
2018-07-26T06:29:34.356Z,99.84
2018-07-26T06:30:34.039Z,98.44
2018-07-26T06:31:34.061Z,97.28
2018-07-26T06:32:34.021Z,97.67
2018-07-26T06:33:34.049Z,97.96
2018-07-26T06:34:34.002Z,97.57
2018-07-26T06:35:33.992Z,97.57
2018-07-26T06:36:33.989Z,97.52
2018-07-26T06:37:33.971Z,97.62
2018-07-26T06:38:33.961Z,96.36
2018-07-26T06:39:34.077Z,95.97
2018-07-26T06:40:34.253Z,96.65
2018-07-26T06:41:33.935Z,95.87
2018-07-26T06:42:33.927Z,95.78
2018-07-26T06:43:33.959Z,96.12
2018-07-26T06:44:33.956Z,94.86
2018-07-26T06:45:33.902Z,95.64
2018-07-26T06:46:34.188Z,94.57
2018-07-26T06:47:33.877Z,96.02
2018-07-26T06:49:33.906Z,94.57
2018-07-26T06:50:33.849Z,93.79
2018-07-26T06:51:33.842Z,93.70
2018-07-26T06:52:34.142Z,93.26
2018-07-26T06:53:33.824Z,93.74
2018-07-26T06:54:33.825Z,93.65
2018-07-26T06:55:33.808Z,93.94
2018-07-26T06:56:33.797Z,92.10
2018-07-26T06:57:33.789Z,92.77
2018-07-26T06:58:34.075Z,91.52
2018-07-26T06:59:33.768Z,90.20
2018-07-26T07:00:33.813Z,90.01
2018-07-26T07:01:33.749Z,88.07
2018-07-26T07:02:33.740Z,90.50
2018-07-26T07:03:33.734Z,91.56
2018-07-26T07:04:33.731Z,91.37
2018-07-26T07:05:33.712Z,89.57
2018-07-26T07:06:33.726Z,89.57
2018-07-26T07:07:33.700Z,88.89
2018-07-26T07:08:33.698Z,88.89
2018-07-26T07:09:33.679Z,88.51
2018-07-26T07:10:33.966Z,88.02
2018-07-26T07:11:33.661Z,88.60
2018-07-26T07:12:33.649Z,87.58
2018-07-26T07:13:33.642Z,87.38
2018-07-26T07:14:33.633Z,89.42
2018-07-26T07:15:33.622Z,89.81
2018-07-26T07:16:33.916Z,87.48
2018-07-26T07:17:33.606Z,87.52
2018-07-26T07:18:33.596Z,87.23
2018-07-26T07:19:33.592Z,85.39
2018-07-26T07:20:33.606Z,85.58
2018-07-26T07:21:33.571Z,85.10
2018-07-26T07:22:34.418Z,84.32
2018-07-26T07:23:33.554Z,84.27
2018-07-26T07:24:33.544Z,85.04
2018-07-26T07:25:33.781Z,85.33
2018-07-26T07:26:33.529Z,84.94
2018-07-26T07:27:33.518Z,84.66
2018-07-26T07:28:33.512Z,84.36
2018-07-26T07:29:33.501Z,83.10
2018-07-26T07:30:33.502Z,81.88
2018-07-26T07:31:33.485Z,82.17
2018-07-26T07:32:33.476Z,81.01
2018-07-26T07:33:33.469Z,80.91
2018-07-26T07:34:33.460Z,80.23
2018-07-26T07:35:33.795Z,80.94
2018-07-26T07:36:33.447Z,82.50
2018-07-26T07:37:33.435Z,80.76
2018-07-26T07:38:33.425Z,78.71
2018-07-26T07:39:33.421Z,79.63
2018-07-26T07:40:33.412Z,76.51
2018-07-26T07:41:33.702Z,77.58
2018-07-26T07:42:33.398Z,76.35
2018-07-26T07:43:33.327Z,77.04
2018-07-26T07:44:33.322Z,74.12
2018-07-26T07:45:33.362Z,76.84
2018-07-26T07:46:33.356Z,75.23
2018-07-26T07:47:33.633Z,72.50
2018-07-26T07:48:33.325Z,74.65
2018-07-26T07:49:33.270Z,73.90
2018-07-26T07:50:33.255Z,70.50
2018-07-26T07:51:33.295Z,72.05
2018-07-26T07:52:33.238Z,68.74
2018-07-26T07:53:33.228Z,68.19
2018-07-26T07:54:33.520Z,63.71
2018-07-26T07:55:33.224Z,65.20
2018-07-26T07:56:33.206Z,65.30
2018-07-26T07:57:33.257Z,66.76
2018-07-26T07:58:33.233Z,64.65
2018-07-26T07:59:33.288Z,65.14
2018-07-26T08:00:33.479Z,63.77
2018-07-26T08:01:33.242Z,62.70
2018-07-26T08:02:33.180Z,65.66
2018-07-26T08:03:33.208Z,65.07
2018-07-26T08:04:33.154Z,63.70
2018-07-26T08:05:33.147Z,66.34
2018-07-26T08:06:33.439Z,63.70
2018-07-26T08:07:33.193Z,59.31
2018-07-26T08:08:33.130Z,59.61
2018-07-26T08:09:33.174Z,60.97
2018-07-26T08:10:33.129Z,62.56
2018-07-26T08:11:33.110Z,64.90
2018-07-26T08:12:33.499Z,65.30
2018-07-26T08:13:33.107Z,62.50
2018-07-26T08:14:33.089Z,60.94
2018-07-26T08:15:33.132Z,60.94
2018-07-26T08:16:33.078Z,60.64
2018-07-26T08:17:33.073Z,60.74
2018-07-26T08:18:33.369Z,58.11
2018-07-26T08:19:33.074Z,58.81
2018-07-26T08:20:33.056Z,59.40
2018-07-26T08:21:33.098Z,56.96
2018-07-26T08:22:33.043Z,58.26
2018-07-26T08:23:33.038Z,58.55
2018-07-26T08:24:33.334Z,58.45
2018-07-26T08:25:33.036Z,57.38
2018-07-26T08:26:33.023Z,57.18
2018-07-26T08:27:33.066Z,58.38
2018-07-26T08:28:33.033Z,54.96
2018-07-26T08:29:33.008Z,55.06
2018-07-26T08:30:33.302Z,53.78
2018-07-26T08:31:32.996Z,54.99
2018-07-26T08:32:32.996Z,56.56
2018-07-26T08:33:33.038Z,56.65
2018-07-26T08:34:33.025Z,55.31
2018-07-26T08:35:32.977Z,53.62
2018-07-26T08:36:32.972Z,53.55
2018-07-26T08:37:33.272Z,53.06
2018-07-26T08:38:32.963Z,53.28
2018-07-26T08:39:33.011Z,53.08
2018-07-26T08:40:32.953Z,52.89
2018-07-26T08:41:32.952Z,53.47
2018-07-26T08:42:32.996Z,52.52
2018-07-26T08:43:33.290Z,51.54
2018-07-26T08:44:32.957Z,52.91
2018-07-26T08:45:32.984Z,52.55
2018-07-26T08:46:32.949Z,51.34
2018-07-26T08:47:32.946Z,50.39
2018-07-26T08:48:32.921Z,51.86
2018-07-26T08:49:32.918Z,51.86
2018-07-26T08:50:32.911Z,52.55
2018-07-26T08:51:34.199Z,50.61
2018-07-26T08:52:32.907Z,49.51
2018-07-26T08:53:32.908Z,50.81
2018-07-26T08:54:32.896Z,49.92
2018-07-26T08:55:33.196Z,51.39
2018-07-26T08:56:32.895Z,48.25
2018-07-26T08:57:34.142Z,49.04
2018-07-26T08:58:32.895Z,49.04
2018-07-26T08:59:32.887Z,47.69
2018-07-26T09:00:32.898Z,47.69
2018-07-26T09:01:33.185Z,47.32
2018-07-26T09:02:32.892Z,46.51
2018-07-26T09:03:32.919Z,49.19
2018-07-26T09:04:32.870Z,47.61
2018-07-26T09:05:32.865Z,48.89
2018-07-26T09:06:32.862Z,47.22
2018-07-26T09:07:33.161Z,47.91
2018-07-26T09:08:32.866Z,46.06
2018-07-26T09:09:32.905Z,47.83
2018-07-26T09:10:32.856Z,47.34
2018-07-26T09:11:32.900Z,49.01
2018-07-26T09:12:32.869Z,47.83
2018-07-26T09:13:33.236Z,45.36
2018-07-26T09:14:32.844Z,47.54
2018-07-26T09:15:32.893Z,44.59
2018-07-26T09:16:32.856Z,45.40
2018-07-26T09:17:32.842Z,46.09
2018-07-26T09:18:32.867Z,44.71
2018-07-26T09:19:32.851Z,44.62
2018-07-26T09:20:32.859Z,46.28
2018-07-26T09:21:32.883Z,46.58
2018-07-26T09:22:32.831Z,47.76
2018-07-26T09:23:32.830Z,47.27
2018-07-26T09:24:32.886Z,46.21
2018-07-26T09:25:33.168Z,45.32
2018-07-26T09:26:32.830Z,45.54
2018-07-26T09:27:32.874Z,45.74
2018-07-26T09:28:32.829Z,44.66
2018-07-26T09:29:32.824Z,43.97
2018-07-26T09:30:32.827Z,45.25
2018-07-26T09:31:33.122Z,45.64
2018-07-26T09:32:32.845Z,45.15
2018-07-26T09:33:32.871Z,45.37
2018-07-26T09:34:32.824Z,43.48
2018-07-26T09:35:32.842Z,44.66
2018-07-26T09:36:32.820Z,43.79
2018-07-26T09:37:33.127Z,43.60
2018-07-26T09:38:32.854Z,42.73
2018-07-26T09:39:32.875Z,43.10
2018-07-26T09:40:32.821Z,42.41
2018-07-26T09:41:32.826Z,44.48
2018-07-26T09:42:32.829Z,44.70
2018-07-26T09:43:33.125Z,42.91
2018-07-26T09:44:32.822Z,43.99
2018-07-26T09:45:32.873Z,43.13
2018-07-26T09:46:32.822Z,42.32
2018-07-26T09:47:32.824Z,43.40
2018-07-26T09:48:32.831Z,42.93
2018-07-26T09:49:33.123Z,43.82
2018-07-26T09:50:32.823Z,44.82
2018-07-26T09:51:32.918Z,43.05
2018-07-26T09:52:32.824Z,44.33
2018-07-26T09:53:32.847Z,43.15
2018-07-26T09:54:32.829Z,43.93
2018-07-26T09:55:33.141Z,41.77
2018-07-26T09:56:32.828Z,41.47
2018-07-26T09:57:32.893Z,41.25
2018-07-26T09:58:32.829Z,42.73
2018-07-26T09:59:32.830Z,42.73
2018-07-26T10:00:32.831Z,43.34
2018-07-26T10:01:33.143Z,41.67
2018-07-26T10:02:32.860Z,41.99
2018-07-26T10:03:33.102Z,44.87
2018-07-26T10:04:32.835Z,42.77
2018-07-26T10:05:32.836Z,40.51
2018-07-26T10:06:32.847Z,43.17
2018-07-26T10:07:32.844Z,41.99
2018-07-26T10:08:33.142Z,42.79
2018-07-26T10:09:32.889Z,42.30
2018-07-26T10:10:32.839Z,42.50
2018-07-26T10:11:32.843Z,38.95
2018-07-26T10:12:32.844Z,39.86
2018-07-26T10:13:32.839Z,37.96
2018-07-26T10:14:33.140Z,39.73
2018-07-26T10:15:32.891Z,40.43
2018-07-26T10:16:32.845Z,41.71
2018-07-26T10:17:32.901Z,40.31
2018-07-26T10:18:32.854Z,40.03
2018-07-26T10:19:32.851Z,40.43
2018-07-26T10:20:33.149Z,39.94
2018-07-26T10:21:32.918Z,41.63
2018-07-26T10:22:32.876Z,44.42
2018-07-26T10:23:32.857Z,43.82
2018-07-26T10:24:32.885Z,41.36
2018-07-26T10:25:32.863Z,41.28
2018-07-26T10:26:32.863Z,41.38
2018-07-26T10:27:33.165Z,41.38
2018-07-26T10:28:32.913Z,38.71
2018-07-26T10:29:32.895Z,40.29
2018-07-26T10:30:32.876Z,39.60
2018-07-26T10:31:32.891Z,39.89
2018-07-26T10:32:32.878Z,39.97
2018-07-26T10:33:33.182Z,40.17
2018-07-26T10:34:32.901Z,39.89
2018-07-26T10:35:32.885Z,40.09
2018-07-26T10:36:32.895Z,39.00
2018-07-26T10:37:32.890Z,40.58
2018-07-26T10:38:32.897Z,39.70
2018-07-26T10:39:33.197Z,38.49
2018-07-26T10:40:32.897Z,38.61
2018-07-26T10:41:32.902Z,39.87
2018-07-26T10:42:32.905Z,39.70
2018-07-26T10:43:32.911Z,40.53
2018-07-26T10:44:32.957Z,40.31
2018-07-26T10:45:33.268Z,40.01
2018-07-26T10:46:32.933Z,38.73
2018-07-26T10:47:32.933Z,38.04
2018-07-26T10:48:32.966Z,39.14
2018-07-26T10:50:32.933Z,40.21
2018-07-26T10:51:33.286Z,40.53
2018-07-26T10:52:32.943Z,39.93
2018-07-26T10:53:32.983Z,39.04
2018-07-26T10:54:32.943Z,39.34
2018-07-26T10:55:32.951Z,39.43
2018-07-26T10:56:32.975Z,39.06
2018-07-26T10:57:33.257Z,37.68
2018-07-26T10:58:32.982Z,36.87
2018-07-26T10:59:33.019Z,38.96
2018-07-26T11:00:32.966Z,38.67
2018-07-26T11:01:33.012Z,37.08
2018-07-26T11:02:32.974Z,37.68
2018-07-26T11:03:33.027Z,38.98
2018-07-26T11:04:33.282Z,38.39
2018-07-26T11:05:32.990Z,38.67
2018-07-26T11:06:32.996Z,39.65
2018-07-26T11:07:32.994Z,39.26
2018-07-26T11:08:32.998Z,37.77
2018-07-26T11:09:33.099Z,39.77
2018-07-26T11:10:33.020Z,39.29
2018-07-26T11:11:33.321Z,38.40
2018-07-26T11:12:33.014Z,39.10
2018-07-26T11:13:33.017Z,37.12
2018-07-26T11:14:33.028Z,38.42
2018-07-26T11:15:33.074Z,36.52
2018-07-26T11:16:33.070Z,36.90
2018-07-26T11:17:33.340Z,37.00
2018-07-26T11:18:33.038Z,37.70
2018-07-26T11:19:33.043Z,37.62
2018-07-26T11:20:33.055Z,36.23
2018-07-26T11:21:33.101Z,35.82
2018-07-26T11:22:33.055Z,38.21
2018-07-26T11:23:33.059Z,35.02
2018-07-26T11:24:33.367Z,36.80
2018-07-26T11:25:33.129Z,38.70
2018-07-26T11:26:33.074Z,36.52
2018-07-26T11:27:33.128Z,38.03
2018-07-26T11:28:33.081Z,34.64
2018-07-26T11:29:33.096Z,35.44
2018-07-26T11:30:33.389Z,36.33
2018-07-26T11:31:33.099Z,36.62
2018-07-26T11:32:33.103Z,35.24
2018-07-26T11:33:33.157Z,35.42
2018-07-26T11:34:33.108Z,35.72
2018-07-26T11:35:33.113Z,36.72
2018-07-26T11:36:33.422Z,37.24
2018-07-26T11:37:33.120Z,36.35
2018-07-26T11:38:33.124Z,36.72
2018-07-26T11:39:33.178Z,37.62
2018-07-26T11:40:33.133Z,36.33
2018-07-26T11:41:33.144Z,37.43
2018-07-26T11:42:33.443Z,37.43
2018-07-26T11:43:33.154Z,36.96
2018-07-26T11:44:33.152Z,37.37
2018-07-26T11:45:33.206Z,36.90
2018-07-26T11:46:33.160Z,35.88
2018-07-26T11:47:33.164Z,35.49
2018-07-26T11:48:33.472Z,35.98
2018-07-26T11:49:33.174Z,34.71
2018-07-26T11:50:33.180Z,34.61
2018-07-26T11:51:33.244Z,34.41
2018-07-26T11:52:33.192Z,35.50
2018-07-26T11:53:33.200Z,33.19
2018-07-26T11:54:33.505Z,33.16
2018-07-26T11:55:33.210Z,35.04
2018-07-26T11:56:33.211Z,34.22
2018-07-26T11:57:33.266Z,34.13
2018-07-26T11:58:33.224Z,34.33
2018-07-26T11:59:33.228Z,36.03
2018-07-26T12:00:33.238Z,37.34
2018-07-26T12:01:33.571Z,36.16
2018-07-26T12:02:33.284Z,35.47
2018-07-26T12:03:33.300Z,35.80
2018-07-26T12:04:33.254Z,36.69
2018-07-26T12:05:33.297Z,34.53
2018-07-26T12:06:33.265Z,36.43
2018-07-26T12:07:33.569Z,34.34
2018-07-26T12:08:33.274Z,32.75
2018-07-26T12:09:33.330Z,34.03
2018-07-26T12:10:33.285Z,33.62
2018-07-26T12:11:33.291Z,33.39
2018-07-26T12:12:33.300Z,34.89
2018-07-26T12:13:33.301Z,35.09
2018-07-26T12:14:33.609Z,34.31
2018-07-26T12:15:33.362Z,34.43
2018-07-26T12:16:33.319Z,35.13
2018-07-26T12:17:33.359Z,34.64
2018-07-26T12:18:33.332Z,34.96
2018-07-26T12:19:33.381Z,33.04
2018-07-26T12:20:33.346Z,32.21
2018-07-26T12:21:33.399Z,35.42
2018-07-26T12:22:33.355Z,32.63
2018-07-26T12:23:33.359Z,33.54
2018-07-26T12:24:33.367Z,34.13
2018-07-26T12:25:33.373Z,36.73
2018-07-26T12:26:33.679Z,33.73
2018-07-26T12:27:33.434Z,34.92
2018-07-26T12:28:33.392Z,33.55
2018-07-26T12:29:33.399Z,34.66
2018-07-26T12:30:33.404Z,33.97
2018-07-26T12:31:33.412Z,32.48
2018-07-26T12:32:33.420Z,31.78
2018-07-26T12:33:33.474Z,32.64
2018-07-26T12:34:33.430Z,33.82
2018-07-26T12:35:33.438Z,34.33
2018-07-26T12:36:33.442Z,31.74
2018-07-26T12:37:33.451Z,34.53
2018-07-26T12:38:33.455Z,33.25
2018-07-26T12:39:33.772Z,33.45
2018-07-26T12:40:33.493Z,34.06
2018-07-26T12:41:33.479Z,35.08
2018-07-26T12:42:33.483Z,33.78
2018-07-26T12:43:33.507Z,32.79
2018-07-26T12:44:33.509Z,32.49
2018-07-26T12:45:33.803Z,31.20
2018-07-26T12:46:33.511Z,31.30
2018-07-26T12:47:33.587Z,34.89
2018-07-26T12:48:33.526Z,30.19
2018-07-26T12:49:33.535Z,32.57
2018-07-26T12:50:33.539Z,35.17
2018-07-26T12:51:33.600Z,33.80
2018-07-26T12:52:33.858Z,32.42
2018-07-26T12:53:33.567Z,30.54
2018-07-26T12:54:33.569Z,32.59
2018-07-26T12:55:33.591Z,34.00
2018-07-26T12:56:33.581Z,35.52
2018-07-26T12:57:33.641Z,36.46
2018-07-26T12:58:33.900Z,37.59